Time;durP1;ratioP1;P1;durP2;ratioP2;P2;SDS_P1;SDS_P2;PMS_P1;PMS_P2;Temp;Humidity;BMP_temperature;BMP_pressure;BME280_temperature;BME280_humidity;BME280_pressure;Samples;Min_cycle;Max_cycle;Signal;HPM_P1;HPM_P2
2024/01/23 00:00:40;;;;;;;29.05;5.72;;;8.30;99.90;;;8.08;74.00;100518.44;4979301;28;20066;-88
2024/01/23 00:03:08;;;;;;;33.30;4.70;;;8.30;99.90;;;8.12;74.01;100526.84;4996388;28;20454;-88
2024/01/23 00:05:37;;;;;;;22.50;4.95;;;8.30;99.90;;;8.07;73.73;100527.41;4997051;28;20108;-88
2024/01/23 00:08:05;;;;;;;26.55;4.97;;;8.30;99.90;;;8.16;73.76;100526.25;5018312;28;20050;-89
2024/01/23 00:10:33;;;;;;;25.58;5.00;;;8.30;99.90;;;8.11;74.02;100519.88;5017758;28;20045;-88
2024/01/23 00:13:01;;;;;;;26.52;4.70;;;8.30;99.90;;;8.13;74.43;100523.97;5018550;28;20065;-88
2024/01/23 00:15:29;;;;;;;29.90;4.60;;;8.30;99.90;;;8.09;75.78;100519.25;4998988;28;20112;-88
2024/01/23 00:17:59;;;;;;;29.00;5.40;;;8.20;99.90;;;8.08;76.17;100513.13;4991392;28;20068;-87
2024/01/23 00:20:27;;;;;;;26.83;4.88;;;8.20;99.90;;;7.99;76.60;100533.69;4998898;28;20487;-88
2024/01/23 00:22:57;;;;;;;23.58;4.35;;;8.20;99.90;;;7.95;76.63;100527.13;4998019;28;20114;-88
2024/01/23 00:25:25;;;;;;;28.50;4.83;;;8.10;99.90;;;7.93;76.46;100539.78;5016468;28;20057;-88
2024/01/23 00:27:53;;;;;;;27.45;4.35;;;8.10;99.90;;;7.95;76.21;100558.16;4998730;28;20324;-88
2024/01/23 00:30:21;;;;;;;23.80;4.53;;;8.10;99.90;;;7.87;76.37;100555.66;4988419;28;20808;-88
2024/01/23 00:32:49;;;;;;;22.38;4.82;;;8.10;99.90;;;7.95;76.26;100529.78;4998757;28;20129;-88
2024/01/23 00:35:22;;;;;;;32.17;4.18;;;8.10;99.90;;;7.91;74.92;100565.72;5017347;28;20089;-88
2024/01/23 00:37:49;;;;;;;26.13;4.32;;;8.10;99.90;;;7.95;74.99;100585.56;5016148;28;20517;-89
2024/01/23 00:40:18;;;;;;;27.02;4.40;;;8.10;99.90;;;7.93;74.86;100570.81;4989744;28;20124;-88
2024/01/23 00:42:46;;;;;;;31.52;4.93;;;8.10;99.90;;;7.89;74.92;100578.34;4999288;28;20053;-89
2024/01/23 00:45:13;;;;;;;28.17;4.60;;;8.10;99.90;;;7.91;75.31;100586.13;5015871;28;20576;-88
2024/01/23 00:47:40;;;;;;;27.33;5.03;;;8.10;99.90;;;7.93;74.93;100605.34;4999095;28;20057;-88
2024/01/23 00:50:09;;;;;;;21.13;3.78;;;8.10;99.90;;;7.99;74.91;100604.56;4999315;28;20054;-88
2024/01/23 00:52:38;;;;;;;24.25;4.55;;;8.10;99.90;;;7.97;74.44;100609.25;4984525;28;20050;-88
2024/01/23 00:55:07;;;;;;;30.92;4.50;;;8.10;99.90;;;7.96;73.72;100610.28;5016615;28;20042;-87
2024/01/23 00:57:35;;;;;;;23.23;4.05;;;8.10;99.90;;;7.95;74.42;100616.56;4983702;28;20108;-88
2024/01/23 01:00:05;;;;;;;19.73;3.90;;;8.10;99.90;;;7.98;75.05;100629.50;5016829;28;20045;-88
2024/01/23 01:02:34;;;;;;;21.10;4.22;;;8.10;99.90;;;7.88;74.77;100640.44;5000684;28;20048;-88
2024/01/23 01:05:02;;;;;;;22.00;3.78;;;8.00;99.90;;;7.89;74.74;100641.25;4983509;28;20050;-88
2024/01/23 01:07:30;;;;;;;20.92;3.42;;;8.00;99.90;;;7.83;73.76;100645.47;4999280;28;20050;-87
2024/01/23 01:10:00;;;;;;;30.58;4.30;;;8.00;99.90;;;7.80;73.99;100642.38;4965315;28;20080;-88
2024/01/23 01:12:28;;;;;;;25.27;4.18;;;8.00;99.90;;;7.74;73.93;100660.69;5001115;28;20124;-87
2024/01/23 01:14:56;;;;;;;24.17;4.03;;;8.00;99.90;;;7.82;73.86;100658.97;5018462;28;20050;-88
2024/01/23 01:17:24;;;;;;;24.60;4.10;;;8.00;99.90;;;7.80;73.37;100655.66;4968128;28;20084;-90
2024/01/23 01:19:51;;;;;;;20.20;3.63;;;8.00;99.90;;;7.82;73.80;100656.31;5018774;28;20068;-88
2024/01/23 01:22:21;;;;;;;15.15;3.67;;;8.00;99.90;;;7.78;73.56;100663.00;5000530;28;20050;-88
2024/01/23 01:24:53;;;;;;;25.58;3.97;;;7.90;99.90;;;7.72;73.15;100670.69;4999521;28;20042;-87
2024/01/23 01:27:21;;;;;;;;;;;7.90;99.90;;;7.80;73.28;100682.19;4985081;28;20662;-87
2024/01/23 01:29:49;;;;;;;20.48;3.50;;;7.90;99.90;;;7.80;73.31;100685.66;5000683;28;20012;-88
2024/01/23 01:32:18;;;;;;;18.83;3.50;;;7.90;99.90;;;7.82;72.97;100694.28;5018332;28;20103;-87
2024/01/23 01:34:46;;;;;;;21.45;3.78;;;8.00;99.90;;;7.79;73.34;100707.13;4999946;28;20061;-88
2024/01/23 01:37:14;;;;;;;21.75;3.95;;;7.90;99.90;;;7.81;73.38;100705.06;5001207;28;20050;-89
2024/01/23 01:39:42;;;;;;;19.02;4.00;;;7.90;99.90;;;7.78;73.26;100702.81;4984472;28;20054;-89
2024/01/23 01:42:14;;;;;;;24.75;3.80;;;7.90;99.90;;;7.83;73.75;100711.03;5000873;28;20128;-88
2024/01/23 01:44:44;;;;;;;20.92;4.28;;;7.90;99.90;;;7.86;73.59;100706.19;4985835;28;20054;-88
2024/01/23 01:47:12;;;;;;;24.17;3.58;;;7.90;99.90;;;7.84;73.20;100713.50;5017018;28;20068;-87
2024/01/23 01:49:39;;;;;;;24.20;3.67;;;7.90;99.90;;;7.84;72.95;100712.69;5006037;28;20107;-88
2024/01/23 01:52:10;;;;;;;19.95;3.63;;;7.90;99.90;;;7.83;72.94;100719.00;4999791;28;20050;-88
2024/01/23 01:54:41;;;;;;;19.77;3.80;;;7.90;99.90;;;7.79;73.42;100712.41;4983850;28;20045;-88
2024/01/23 01:57:09;;;;;;;21.75;3.65;;;7.90;99.90;;;7.80;74.57;100706.09;5014263;28;20575;-88
2024/01/23 01:59:37;;;;;;;25.90;4.32;;;7.90;99.90;;;7.81;75.40;100710.38;4979881;28;20072;-88
2024/01/23 02:02:09;;;;;;;23.88;3.67;;;7.90;99.90;;;7.81;75.75;100699.75;4996510;28;20073;-88
2024/01/23 02:04:39;;;;;;;25.65;3.88;;;7.80;99.90;;;7.69;75.99;100707.41;5015262;28;20045;-88
2024/01/23 02:07:08;;;;;;;20.23;4.63;;;7.80;99.90;;;7.61;75.22;100718.97;4997198;28;20077;-88
2024/01/23 02:09:35;;;;;;;24.58;3.80;;;7.80;99.90;;;7.61;75.69;100707.50;4980126;28;20133;-88
2024/01/23 02:12:05;;;;;;;27.60;4.38;;;7.70;99.90;;;7.60;75.84;100722.59;5014355;28;20049;-87
2024/01/23 02:14:35;;;;;;;23.65;3.85;;;7.70;99.90;;;7.59;75.67;100736.91;5014603;28;20105;-87
2024/01/23 02:17:02;;;;;;;28.20;4.72;;;7.70;99.90;;;7.56;74.56;100741.75;5015606;28;20065;-88
2024/01/23 02:19:31;;;;;;;21.98;4.35;;;7.70;99.90;;;7.51;74.71;100741.47;5014635;28;20120;-87
2024/01/23 02:22:01;;;;;;;19.77;3.38;;;7.60;99.90;;;7.51;74.48;100755.56;4996920;28;20076;-90
2024/01/23 02:24:33;;;;;;;18.10;3.60;;;7.70;99.90;;;7.55;74.59;100762.16;5014082;28;20457;-89
2024/01/23 02:27:00;;;;;;;21.73;4.22;;;7.70;99.90;;;7.48;74.15;100785.97;4996989;28;20292;-89
2024/01/23 02:29:28;;;;;;;18.50;3.95;;;7.70;99.90;;;7.50;73.99;100783.13;5014886;28;20049;-88
2024/01/23 02:31:55;;;;;;;23.75;4.53;;;7.70;99.90;;;7.47;72.67;100784.31;4971641;28;20088;-90
2024/01/23 02:34:24;;;;;;;23.65;3.20;;;7.70;99.90;;;7.47;72.77;100786.97;4996654;28;20084;-88
2024/01/23 02:36:57;;;;;;;23.15;3.67;;;7.70;99.90;;;7.51;71.96;100775.97;4989888;28;20057;-88
2024/01/23 02:39:27;;;;;;;23.52;3.13;;;7.70;99.90;;;7.53;71.54;100795.22;5012751;28;20050;-88
2024/01/23 02:41:56;;;;;;;21.92;3.88;;;7.70;99.90;;;7.57;71.42;100801.81;5015345;28;20145;-88
2024/01/23 02:44:26;;;;;;;25.13;3.17;;;7.70;99.90;;;7.55;71.57;100799.31;5015741;28;20440;-88
2024/01/23 02:46:57;;;;;;;18.27;3.42;;;7.70;99.90;;;7.60;71.87;100806.72;5015546;28;20567;-88
2024/01/23 02:49:25;;;;;;;17.83;3.63;;;7.70;99.90;;;7.59;70.88;100813.03;5014707;28;20069;-88
2024/01/23 02:51:54;;;;;;;27.23;3.85;;;7.70;99.90;;;7.54;70.96;100807.47;4989666;28;20054;-88
2024/01/23 02:54:24;;;;;;;19.95;3.95;;;7.80;99.90;;;7.61;70.68;100803.06;4964389;28;20065;-88
2024/01/23 02:56:53;;;;;;;22.58;3.53;;;7.80;99.90;;;7.59;70.08;100802.44;5014856;28;20497;-88
2024/01/23 02:59:22;;;;;;;22.25;3.40;;;7.80;99.90;;;7.52;70.19;100812.16;4965030;28;20053;-88
2024/01/23 03:01:49;;;;;;;17.83;3.50;;;7.70;99.90;;;7.54;69.77;100812.78;4985221;28;20092;-88
2024/01/23 03:04:18;;;;;;;19.50;3.60;;;7.70;99.90;;;7.56;69.11;100816.88;4994153;28;20054;-88
2024/01/23 03:06:48;;;;;;;19.92;3.22;;;7.70;99.90;;;7.53;68.87;100835.84;5008423;28;20050;-88
2024/01/23 03:09:22;;;;;;;31.27;4.35;;;7.70;99.90;;;7.50;68.77;100833.53;5002235;28;20061;-89
2024/01/23 03:11:50;;;;;;;19.90;3.30;;;7.70;99.90;;;7.56;69.31;100847.91;5002059;28;20054;-88
2024/01/23 03:14:18;;;;;;;19.98;3.33;;;7.70;99.90;;;7.49;69.15;100847.81;5019545;28;20056;-88
2024/01/23 03:16:46;;;;;;;20.25;4.00;;;7.70;99.90;;;7.48;68.85;100856.78;5018581;28;20096;-88
2024/01/23 03:19:15;;;;;;;26.90;4.75;;;7.70;99.90;;;7.46;69.12;100864.09;4986754;28;20078;-88
2024/01/23 03:21:43;;;;;;;26.58;3.50;;;7.70;99.90;;;7.47;68.96;100876.38;5010578;28;20460;-88
2024/01/23 03:24:11;;;;;;;27.90;4.32;;;7.70;99.90;;;7.45;69.09;100883.69;5001963;28;20046;-88
2024/01/23 03:26:38;;;;;;;18.63;3.10;;;7.70;99.90;;;7.52;69.80;100879.31;5019442;28;20142;-89
2024/01/23 03:29:05;;;;;;;17.15;3.53;;;7.70;99.90;;;7.45;69.11;100878.38;5018689;28;20050;-88
2024/01/23 03:31:33;;;;;;;20.52;3.03;;;7.70;99.90;;;7.51;69.56;100890.91;5018236;28;20054;-89
2024/01/23 03:34:02;;;;;;;19.98;3.25;;;7.70;99.90;;;7.42;68.68;100886.72;5001766;28;20064;-88
2024/01/23 03:36:30;;;;;;;17.70;3.90;;;7.70;99.90;;;7.53;69.42;100899.53;5017862;28;20073;-89
2024/01/23 03:38:59;;;;;;;31.50;3.88;;;7.70;99.90;;;7.60;69.16;100895.13;5001375;28;20148;-88
2024/01/23 03:41:27;;;;;;;17.75;3.28;;;7.70;99.90;;;7.51;68.61;100904.19;5001699;28;20065;-89
2024/01/23 03:43:54;;;;;;;19.10;3.45;;;7.70;99.90;;;7.51;69.18;100888.25;5007504;28;20050;-88
2024/01/23 03:46:22;;;;;;;25.40;4.07;;;7.70;99.90;;;7.53;68.87;100901.38;4999961;28;20046;-88
2024/01/23 03:48:50;;;;;;;15.50;3.10;;;7.70;99.90;;;7.56;68.76;100912.41;4984514;28;20399;-88
2024/01/23 03:51:20;;;;;;;23.77;4.40;;;7.70;99.90;;;7.53;68.79;100907.50;5017303;28;20085;-89
2024/01/23 03:53:47;;;;;;;22.23;4.07;;;7.70;99.90;;;7.51;68.42;100911.31;4984404;28;20050;-88
2024/01/23 03:56:15;;;;;;;22.90;3.47;;;7.70;99.90;;;7.51;68.93;100913.97;5017525;28;20568;-88
2024/01/23 03:58:43;;;;;;;23.05;3.30;;;7.70;99.90;;;7.57;68.81;100930.03;5017962;28;20053;-89
2024/01/23 04:01:11;;;;;;;22.25;4.22;;;7.70;99.90;;;7.59;68.33;100924.53;5016159;28;20065;-88
2024/01/23 04:03:38;;;;;;;19.83;3.92;;;7.70;99.90;;;7.46;68.56;100930.44;4984261;28;20046;-88
2024/01/23 04:06:10;;;;;;;24.33;3.75;;;7.70;99.90;;;7.43;68.75;100930.81;5000083;28;20068;-88
2024/01/23 04:08:43;;;;;;;20.35;3.75;;;7.60;99.90;;;7.45;68.59;100939.41;4984366;28;20049;-89
2024/01/23 04:11:12;;;;;;;20.25;3.70;;;7.60;99.90;;;7.41;68.45;100952.19;4999916;28;20111;-88
2024/01/23 04:13:40;;;;;;;19.13;3.20;;;7.60;99.90;;;7.43;69.01;100952.88;5015333;28;20076;-89
2024/01/23 04:16:08;;;;;;;20.50;4.00;;;7.60;99.90;;;7.47;68.76;100971.91;4999604;28;20132;-88
2024/01/23 04:18:36;;;;;;;20.25;3.65;;;7.60;99.90;;;7.37;69.09;100971.31;4998757;28;20050;-87
2024/01/23 04:21:07;;;;;;;23.23;3.42;;;7.60;99.90;;;7.41;68.67;100967.28;4988746;28;20053;-89
2024/01/23 04:23:34;;;;;;;14.90;3.22;;;7.60;99.90;;;7.42;69.16;100976.94;4991462;28;20597;-88
2024/01/23 04:26:07;;;;;;;20.98;3.95;;;7.60;99.90;;;7.48;69.04;100986.81;4998880;28;20052;-88
2024/01/23 04:28:36;;;;;;;19.92;3.50;;;7.60;99.90;;;7.41;68.83;100983.22;5000009;28;20449;-88
2024/01/23 04:31:04;;;;;;;24.15;4.57;;;7.50;99.90;;;7.33;69.59;100993.91;4999454;28;20623;-88
2024/01/23 04:33:35;;;;;;;21.83;3.80;;;7.50;99.90;;;7.34;69.49;100998.22;5016726;28;20050;-88
2024/01/23 04:36:02;;;;;;;;;;;7.50;99.90;;;7.37;69.38;101004.00;4990797;28;20088;-89
2024/01/23 04:38:31;;;;;;;16.13;3.35;;;7.50;99.90;;;7.38;69.19;101008.28;5017602;28;19948;-88
2024/01/23 04:41:00;;;;;;;19.80;3.78;;;7.50;99.90;;;7.27;69.00;101000.75;5016038;28;20081;-88
2024/01/23 04:43:33;;;;;;;19.08;3.90;;;7.40;99.90;;;7.16;69.40;101009.91;5017418;28;20117;-88
2024/01/23 04:46:01;;;;;;;24.35;3.90;;;7.40;99.90;;;7.19;69.09;101012.22;5017317;28;20568;-88
2024/01/23 04:48:29;;;;;;;22.48;3.97;;;7.30;99.90;;;7.21;69.47;101027.97;4985444;28;20054;-88
2024/01/23 04:50:57;;;;;;;23.15;4.05;;;7.40;99.90;;;7.15;69.67;101026.84;4984647;28;20109;-89
2024/01/23 04:53:27;;;;;;;23.50;3.45;;;7.30;99.90;;;7.23;69.45;101029.44;4967939;28;20400;-88
2024/01/23 04:55:55;;;;;;;24.10;4.40;;;7.30;99.90;;;7.26;70.05;101030.91;4984557;28;20063;-88
2024/01/23 04:58:22;;;;;;;23.73;3.30;;;7.40;99.90;;;7.26;69.78;101030.09;4985046;28;20202;-89
2024/01/23 05:00:52;;;;;;;23.48;3.45;;;7.30;99.90;;;7.32;69.77;101032.88;4968900;28;20058;-88
2024/01/23 05:03:20;;;;;;;22.52;3.83;;;7.40;99.90;;;7.27;69.77;101039.69;4967502;28;20094;-88
2024/01/23 05:05:47;;;;;;;24.25;4.22;;;7.40;99.90;;;7.26;70.27;101046.00;4935207;28;20131;-88
2024/01/23 05:08:16;;;;;;;20.85;3.60;;;7.40;99.90;;;7.31;70.09;101065.69;4985507;28;20078;-86
2024/01/23 05:10:44;;;;;;;28.25;4.07;;;7.40;99.90;;;7.34;70.14;101067.19;4988999;28;20066;-85
2024/01/23 05:13:12;;;;;;;27.55;4.72;;;7.40;99.90;;;7.36;69.70;101076.63;4985589;28;20137;-87
2024/01/23 05:15:39;;;;;;;27.83;4.05;;;7.40;99.90;;;7.40;69.42;101077.91;4953274;28;20050;-86
2024/01/23 05:18:09;;;;;;;22.48;3.53;;;7.40;99.90;;;7.43;69.73;101087.38;4981502;28;20062;-84
2024/01/23 05:20:37;;;;;;;24.55;4.53;;;7.50;99.90;;;7.46;69.75;101093.13;5023029;28;20045;-85
2024/01/23 05:23:06;;;;;;;26.65;5.13;;;7.40;99.90;;;7.47;69.63;101100.13;5013506;28;20054;-84
2024/01/23 05:25:35;;;;;;;20.27;3.92;;;7.40;99.90;;;7.37;69.33;101110.13;4986314;28;20050;-84
2024/01/23 05:28:04;;;;;;;19.45;3.42;;;7.50;99.90;;;7.38;69.63;101100.34;5003326;28;20065;-83
2024/01/23 05:30:33;;;;;;;24.52;4.47;;;7.30;99.90;;;7.39;69.38;101120.56;5003412;28;20050;-84
2024/01/23 05:33:00;;;;;;;17.30;3.97;;;7.30;99.90;;;7.36;69.36;101123.56;5002119;28;20081;-87
2024/01/23 05:35:30;;;;;;;25.65;4.47;;;7.20;99.90;;;7.39;69.30;101123.22;4970452;28;20050;-84
2024/01/23 05:37:58;;;;;;;18.63;3.92;;;7.30;99.90;;;7.32;69.23;101130.19;5003012;28;20506;-85
2024/01/23 05:40:26;;;;;;;21.90;4.07;;;7.30;99.90;;;7.29;69.53;101143.84;5006293;28;20046;-85
2024/01/23 05:42:53;;;;;;;25.52;4.25;;;7.20;99.90;;;7.26;69.63;101142.34;4983195;28;20046;-84
2024/01/23 05:45:20;;;;;;;23.75;4.38;;;7.10;99.90;;;7.26;69.90;101152.13;4999204;28;20054;-84
2024/01/23 05:47:48;;;;;;;24.75;4.85;;;7.10;99.90;;;7.28;69.48;101153.63;5001037;28;20494;-84
2024/01/23 05:50:19;;;;;;;27.58;5.10;;;7.10;99.90;;;7.08;69.67;101147.91;4998684;28;20069;-85
2024/01/23 05:52:49;;;;;;;25.50;4.55;;;7.10;99.90;;;6.99;70.26;101159.53;4966002;28;20046;-84
2024/01/23 05:55:19;;;;;;;24.65;4.90;;;7.00;99.90;;;7.06;70.01;101170.28;4965988;28;20186;-85
2024/01/23 05:57:47;;;;;;;21.75;5.43;;;7.10;99.90;;;7.07;70.02;101180.69;4956453;28;20128;-84
2024/01/23 06:00:15;;;;;;;22.58;4.85;;;7.00;99.90;;;7.11;69.84;101183.84;4986905;28;20081;-84
2024/01/23 06:02:43;;;;;;;27.90;5.20;;;7.00;99.90;;;7.05;69.82;101195.16;5002692;28;20046;-84
2024/01/23 06:05:12;;;;;;;17.35;3.80;;;7.00;99.90;;;7.06;69.95;101197.63;4986476;28;20053;-84
2024/01/23 06:07:43;;;;;;;26.83;5.38;;;7.00;99.90;;;7.04;69.70;101199.63;5020662;28;20046;-87
2024/01/23 06:10:13;;;;;;;29.05;5.85;;;7.00;99.90;;;7.07;69.78;101201.91;4967212;28;20494;-85
2024/01/23 06:12:40;;;;;;;28.23;4.90;;;7.00;99.90;;;7.09;69.89;101205.25;4981423;28;20074;-83
2024/01/23 06:15:23;;;;;;;27.48;5.40;;;7.00;99.90;;;7.09;69.76;101205.25;5007206;28;20117;-84
2024/01/23 06:17:51;;;;;;;28.67;5.43;;;7.00;99.90;;;7.06;69.59;101225.97;4985237;28;20054;-85
2024/01/23 06:20:18;;;;;;;24.60;4.60;;;6.90;99.90;;;7.08;69.67;101224.81;5002983;28;20114;-85
2024/01/23 06:22:46;;;;;;;27.90;4.20;;;7.00;99.90;;;7.07;69.37;101223.13;4951116;28;20136;-83
2024/01/23 06:25:15;;;;;;;26.05;4.93;;;6.90;99.90;;;7.01;69.55;101228.31;4981776;28;20111;-83
2024/01/23 06:27:44;;;;;;;18.10;4.32;;;6.90;99.90;;;6.96;69.80;101220.84;4984990;28;20137;-85
2024/01/23 06:30:13;;;;;;;22.23;4.03;;;6.90;99.90;;;6.89;70.04;101222.53;4999702;28;20046;-84
2024/01/23 06:32:41;;;;;;;20.88;4.10;;;6.90;99.90;;;6.95;70.22;101225.34;4986100;28;20136;-84
2024/01/23 06:35:10;;;;;;;15.40;3.80;;;6.80;99.90;;;6.97;69.69;101236.59;5019548;28;20046;-84
2024/01/23 06:37:37;;;;;;;20.80;4.22;;;6.80;99.90;;;6.94;69.75;101252.03;5021974;28;20049;-84
2024/01/23 06:40:08;;;;;;;29.27;4.93;;;6.80;99.90;;;6.83;70.24;101252.34;5002891;28;20042;-84
2024/01/23 06:42:37;;;;;;;26.65;3.95;;;6.80;99.90;;;6.91;70.36;101268.25;5002004;28;20045;-84
2024/01/23 06:45:06;;;;;;;25.40;3.65;;;6.80;99.90;;;6.91;70.11;101271.72;5019965;28;20057;-84
2024/01/23 06:47:34;;;;;;;21.33;3.97;;;6.80;99.90;;;6.98;70.12;101277.22;4981317;28;20046;-85
2024/01/23 06:50:01;;;;;;;27.65;4.68;;;6.80;99.90;;;6.86;69.76;101286.50;5001713;28;20065;-85
2024/01/23 06:52:29;;;;;;;19.15;4.25;;;6.80;99.90;;;6.79;70.08;101290.81;4998958;28;20505;-85
2024/01/23 06:54:57;;;;;;;21.45;4.15;;;6.70;99.90;;;6.79;70.28;101290.81;5020783;28;20065;-85
2024/01/23 06:57:25;;;;;;;22.42;4.10;;;6.70;99.90;;;6.85;70.41;101301.56;5021507;28;20072;-84
2024/01/23 06:59:54;;;;;;;21.42;4.05;;;6.80;99.90;;;6.93;69.83;101298.09;5022177;28;20591;-85
2024/01/23 07:02:22;;;;;;;22.98;3.78;;;6.70;99.90;;;6.87;70.02;101306.69;5032099;28;20455;-84
2024/01/23 07:04:50;;;;;;;22.13;3.65;;;6.80;99.90;;;6.88;70.18;101300.41;5023262;28;20171;-85
2024/01/23 07:07:19;;;;;;;27.65;4.40;;;6.80;99.90;;;6.86;69.91;101303.22;5004659;28;20468;-85
2024/01/23 07:09:47;;;;;;;24.00;3.92;;;6.80;99.90;;;6.84;70.16;101315.84;5002882;28;20505;-85
2024/01/23 07:12:16;;;;;;;26.60;4.38;;;6.70;99.90;;;6.87;69.96;101315.47;5026943;28;20037;-85
2024/01/23 07:14:44;;;;;;;25.42;3.92;;;6.80;99.90;;;6.74;70.04;101324.94;5020953;28;20046;-85
2024/01/23 07:17:14;;;;;;;24.10;3.75;;;6.70;99.90;;;6.71;70.21;101321.63;5003223;28;20173;-85
2024/01/23 07:19:42;;;;;;;27.70;3.63;;;6.70;99.90;;;6.64;70.31;101328.59;5020408;28;20053;-84
2024/01/23 07:22:10;;;;;;;26.40;3.97;;;6.70;99.90;;;6.55;70.93;101324.25;5020584;28;20042;-84
2024/01/23 07:24:37;;;;;;;23.08;3.58;;;6.70;99.90;;;6.55;70.81;101320.78;4981613;28;20038;-84
2024/01/23 07:27:05;;;;;;;19.38;4.00;;;6.60;99.90;;;6.57;70.81;101332.88;5020881;28;20116;-84
2024/01/23 07:29:32;;;;;;;27.02;3.97;;;6.70;99.90;;;6.61;71.09;101320.94;5020796;28;20053;-84
2024/01/23 07:32:00;;;;;;;21.67;3.88;;;6.60;99.90;;;6.63;71.02;101339.31;5021530;28;20057;-84
2024/01/23 07:34:29;;;;;;;19.10;3.40;;;6.60;99.90;;;6.63;70.74;101340.16;5002370;28;20512;-84
2024/01/23 07:36:56;;;;;;;21.33;4.00;;;6.60;99.90;;;6.66;70.92;101350.44;5019960;28;20077;-84
2024/01/23 07:39:24;;;;;;;24.35;3.85;;;6.60;99.90;;;6.73;71.10;101358.56;5019590;28;20053;-84
2024/01/23 07:41:51;;;;;;;23.98;4.00;;;6.60;99.90;;;6.76;70.42;101355.59;4983420;28;20047;-84
2024/01/23 07:44:19;;;;;;;23.30;3.90;;;6.70;99.90;;;6.68;70.50;101345.78;5001804;28;20096;-84
2024/01/23 07:46:47;;;;;;;19.27;3.70;;;6.60;99.90;;;6.71;71.02;101350.78;4983702;28;20133;-84
2024/01/23 07:49:15;;;;;;;26.80;3.88;;;6.70;99.90;;;6.69;70.33;101359.91;4983361;28;20050;-84
2024/01/23 07:51:49;;;;;;;19.20;3.75;;;6.60;99.90;;;6.62;70.83;101369.47;4967713;28;20042;-84
2024/01/23 07:54:18;;;;;;;25.67;3.92;;;6.60;99.90;;;6.68;70.77;101380.25;4984149;28;20590;-84
2024/01/23 07:56:46;;;;;;;24.10;3.60;;;6.60;99.90;;;6.70;70.88;101394.19;4984049;28;20054;-84
2024/01/23 07:59:14;;;;;;;27.17;4.28;;;6.60;99.90;;;6.67;70.84;101394.50;4982235;28;20057;-85
2024/01/23 08:01:42;;;;;;;19.08;3.47;;;6.60;99.90;;;6.60;71.06;101401.47;4966665;28;20046;-85
2024/01/23 08:04:10;;;;;;;23.30;4.05;;;6.50;99.90;;;6.59;70.78;101399.81;4967006;28;20056;-85
2024/01/23 08:06:38;;;;;;;26.05;3.97;;;6.60;99.90;;;6.65;70.84;101409.75;4983184;28;20055;-85
2024/01/23 08:09:07;;;;;;;23.75;3.58;;;6.60;99.90;;;6.68;70.91;101406.75;4982873;28;20399;-85
2024/01/23 08:11:35;;;;;;;35.45;5.22;;;6.60;99.90;;;6.70;70.94;101415.41;4967749;28;20050;-85
2024/01/23 08:14:03;;;;;;;24.95;4.00;;;6.60;99.90;;;6.65;70.67;101419.53;4996928;28;20043;-86
2024/01/23 08:16:31;;;;;;;24.70;4.43;;;6.60;99.90;;;6.65;70.94;101417.69;4996341;28;20068;-86
2024/01/23 08:19:02;;;;;;;24.23;4.03;;;6.60;99.90;;;6.68;70.74;101437.75;4998344;28;20045;-86
2024/01/23 08:21:30;;;;;;;21.60;4.35;;;6.60;99.90;;;6.65;70.78;101441.56;4983162;28;20053;-86
2024/01/23 08:23:57;;;;;;;23.27;4.05;;;6.60;99.90;;;6.62;71.48;101433.91;4981264;28;20069;-85
2024/01/23 08:26:29;;;;;;;19.33;3.30;;;6.60;99.90;;;6.69;71.05;101450.84;4997982;28;20053;-85
2024/01/23 08:28:59;;;;;;;24.98;3.75;;;6.70;99.90;;;6.64;71.45;101458.47;5014360;28;20548;-87
2024/01/23 08:31:26;;;;;;;24.05;4.40;;;6.60;99.90;;;6.65;71.25;101449.50;4996302;28;20482;-86
2024/01/23 08:33:54;;;;;;;24.33;3.90;;;6.60;99.90;;;6.70;71.19;101455.16;4961658;28;20508;-85
2024/01/23 08:36:21;;;;;;;26.80;4.13;;;6.70;99.90;;;6.63;71.42;101450.66;4978768;28;20466;-86
2024/01/23 08:38:49;;;;;;;22.42;4.00;;;6.70;99.90;;;6.65;71.50;101449.50;4978295;28;20565;-86
2024/01/23 08:41:17;;;;;;;19.58;3.80;;;6.70;99.90;;;6.74;71.36;101452.19;4994132;28;20050;-85
2024/01/23 08:43:46;;;;;;;20.60;4.35;;;6.70;99.90;;;6.78;71.33;101445.56;4995765;28;20093;-85
2024/01/23 08:46:15;;;;;;;;;;;6.80;99.90;;;6.82;71.22;101433.63;4995837;28;20058;-86
2024/01/23 08:48:43;;;;;;;22.88;4.00;;;6.80;99.90;;;6.73;71.20;101446.03;4978047;28;19921;-86
2024/01/23 08:51:11;;;;;;;20.30;3.50;;;6.80;99.90;;;6.78;71.30;101445.56;4978609;28;20061;-86
2024/01/23 08:53:38;;;;;;;17.00;3.63;;;6.80;99.90;;;6.84;71.23;101436.97;4977990;28;20140;-85
2024/01/23 08:56:07;;;;;;;23.88;3.85;;;6.80;99.90;;;6.78;70.92;101441.06;4898971;28;20145;-86
2024/01/23 08:58:35;;;;;;;25.13;4.70;;;6.80;99.90;;;6.82;71.50;101430.97;4977055;28;20057;-86
2024/01/23 09:01:04;;;;;;;38.90;4.80;;;6.80;99.90;;;6.87;71.31;101436.63;4991884;28;20042;-86
2024/01/23 09:03:33;;;;;;;23.25;3.95;;;6.90;99.90;;;6.79;71.22;101450.72;5014859;28;20049;-85
2024/01/23 09:06:01;;;;;;;32.67;4.95;;;6.90;99.90;;;6.80;71.40;101455.00;4997011;28;20042;-85
2024/01/23 09:08:28;;;;;;;22.30;3.97;;;6.90;99.90;;;6.86;71.31;101453.53;4996877;28;20100;-86
2024/01/23 09:10:57;;;;;;;22.58;3.70;;;6.90;99.90;;;6.85;71.14;101465.13;4948908;28;20057;-85
2024/01/23 09:13:24;;;;;;;27.80;4.50;;;6.90;99.90;;;6.91;71.33;101461.81;4997165;28;20042;-86
2024/01/23 09:15:52;;;;;;;29.48;4.68;;;7.00;99.90;;;6.90;71.04;101470.78;4996298;28;20124;-85
2024/01/23 09:18:22;;;;;;;23.27;4.18;;;7.00;99.90;;;6.87;71.35;101461.31;4982368;28;20095;-85
2024/01/23 09:20:49;;;;;;;28.42;4.45;;;7.00;99.90;;;6.85;71.03;101465.13;4997652;28;20145;-85
2024/01/23 09:23:17;;;;;;;25.10;4.47;;;7.10;99.90;;;6.86;71.29;101469.44;4974450;28;20042;-85
2024/01/23 09:25:44;;;;;;;23.90;3.85;;;7.00;99.90;;;6.80;71.43;101468.28;4989240;28;20038;-85
2024/01/23 09:28:12;;;;;;;23.73;4.25;;;7.00;99.90;;;6.79;71.47;101463.13;5015346;28;20096;-85
2024/01/23 09:30:40;;;;;;;24.20;4.15;;;7.00;99.90;;;6.86;71.47;101467.63;4997056;28;20501;-85
2024/01/23 09:33:08;;;;;;;22.58;4.28;;;7.00;99.90;;;6.85;71.40;101475.75;4998005;28;20093;-85
2024/01/23 09:35:37;;;;;;;22.08;4.53;;;7.00;99.90;;;6.82;71.54;101465.44;5014371;28;20457;-85
2024/01/23 09:38:05;;;;;;;22.33;4.35;;;7.00;99.90;;;6.82;71.73;101466.28;5014454;28;20117;-85
2024/01/23 09:40:33;;;;;;;28.65;4.43;;;7.00;99.90;;;6.80;72.09;101483.34;4977648;28;20054;-85
2024/01/23 09:43:01;;;;;;;27.52;4.57;;;7.10;99.90;;;6.88;71.98;101481.56;4961883;28;20133;-85
2024/01/23 09:45:31;;;;;;;22.85;4.55;;;7.10;99.90;;;6.91;71.89;101498.94;4961427;28;20081;-85
2024/01/23 09:47:58;;;;;;;22.60;4.10;;;7.10;99.90;;;6.87;71.61;101495.78;4993414;28;20145;-85
2024/01/23 09:50:28;;;;;;;26.52;4.53;;;7.10;99.90;;;6.90;71.56;101495.47;4977097;28;20074;-86
2024/01/23 09:53:00;;;;;;;28.73;4.82;;;7.20;99.90;;;6.97;71.49;101504.44;4980787;28;20076;-85
2024/01/23 09:55:28;;;;;;;23.77;5.28;;;7.20;99.90;;;7.00;71.88;101503.28;4998297;28;20046;-85
2024/01/23 09:57:57;;;;;;;25.13;4.78;;;7.20;99.90;;;7.08;71.52;101495.34;4994926;28;20038;-85
2024/01/23 10:00:25;;;;;;;23.27;4.43;;;7.30;99.90;;;7.15;71.38;101493.69;4944886;28;20073;-85
2024/01/23 10:02:54;;;;;;;28.52;4.18;;;7.30;99.90;;;7.26;71.31;101502.34;4961309;28;20510;-85
2024/01/23 10:05:22;;;;;;;24.23;4.45;;;7.40;99.90;;;7.26;70.63;101507.63;4977195;28;20050;-85
2024/01/23 10:07:50;;;;;;;25.45;3.97;;;7.40;99.90;;;7.22;70.92;101505.34;4995027;28;20134;-86
2024/01/23 10:10:19;;;;;;;28.45;5.00;;;7.40;99.90;;;7.23;71.05;101514.94;4987592;28;20042;-85
2024/01/23 10:12:49;;;;;;;27.13;4.47;;;7.40;99.90;;;7.22;70.75;101515.94;5018715;28;20061;-85
2024/01/23 10:15:18;;;;;;;26.08;4.35;;;7.40;99.90;;;7.20;71.41;101523.22;5018119;28;20045;-85
2024/01/23 10:17:46;;;;;;;27.70;4.50;;;7.40;99.90;;;7.30;71.41;101527.56;5001231;28;20476;-85
2024/01/23 10:20:15;;;;;;;23.85;3.90;;;7.50;99.90;;;7.30;71.05;101533.69;5000558;28;20058;-85
2024/01/23 10:22:45;;;;;;;32.47;5.38;;;7.50;99.90;;;7.26;70.87;101520.91;4984373;28;20049;-85
2024/01/23 10:25:19;;;;;;;26.58;4.50;;;7.50;99.90;;;7.23;70.83;101528.22;5016328;28;20067;-85